sensor_id;sensor_type;location;lat;lon;timestamp;P1;durP1;ratioP1;P2;durP2;ratioP2
46457;SDS011;32155;54.076;12.092;2023-02-28T14:17:13;9.63;;;2.05;;
46457;SDS011;32155;54.076;12.092;2023-02-28T14:19:56;4.83;;;1.80;;
46457;SDS011;32155;54.076;12.092;2023-02-28T14:43:01;5.53;;;1.85;;
46457;SDS011;32155;54.076;12.092;2023-02-28T14:45:30;2.40;;;1.13;;
46457;SDS011;32155;54.076;12.092;2023-02-28T14:48:14;2.83;;;1.30;;
46457;SDS011;32155;54.076;12.092;2023-02-28T14:50:42;12.15;;;1.83;;
46457;SDS011;32155;54.076;12.092;2023-02-28T14:53:21;6.72;;;1.65;;
46457;SDS011;32155;54.076;12.092;2023-02-28T14:55:51;9.90;;;2.03;;
46457;SDS011;32155;54.076;12.092;2023-02-28T15:01:02;7.57;;;1.55;;
46457;SDS011;32155;54.076;12.092;2023-02-28T15:03:30;23.58;;;2.70;;
46457;SDS011;32155;54.076;12.092;2023-02-28T15:05:59;7.85;;;2.22;;
46457;SDS011;32155;54.076;12.092;2023-02-28T15:08:30;23.52;;;2.40;;
46457;SDS011;32155;54.076;12.092;2023-02-28T15:11:02;10.63;;;1.95;;
46457;SDS011;32155;54.076;12.092;2023-02-28T15:13:36;8.30;;;1.65;;
46457;SDS011;32155;54.076;12.092;2023-02-28T15:16:03;5.13;;;1.63;;
46457;SDS011;32155;54.076;12.092;2023-02-28T15:18:54;15.60;;;2.47;;
46457;SDS011;32155;54.076;12.092;2023-02-28T15:21:31;8.20;;;1.88;;
46457;SDS011;32155;54.076;12.092;2023-02-28T15:24:07;4.40;;;1.50;;
46457;SDS011;32155;54.076;12.092;2023-02-28T15:26:41;4.45;;;1.70;;
46457;SDS011;32155;54.076;12.092;2023-02-28T15:29:23;1.90;;;1.17;;
46457;SDS011;32155;54.076;12.092;2023-02-28T15:32:05;5.45;;;1.70;;
46457;SDS011;32155;54.076;12.092;2023-02-28T15:34:39;4.85;;;1.58;;
46457;SDS011;32155;54.076;12.092;2023-02-28T15:39:53;5.63;;;1.48;;
46457;SDS011;32155;54.076;12.092;2023-02-28T15:42:29;4.93;;;1.60;;
46457;SDS011;32155;54.076;12.092;2023-02-28T15:47:30;11.65;;;2.25;;
46457;SDS011;32155;54.076;12.092;2023-02-28T15:52:41;8.60;;;2.47;;
46457;SDS011;32155;54.076;12.092;2023-02-28T15:55:23;11.48;;;2.13;;
46457;SDS011;32155;54.076;12.092;2023-02-28T15:57:52;7.57;;;1.20;;
46457;SDS011;32155;54.076;12.092;2023-02-28T16:00:24;15.73;;;1.90;;
46457;SDS011;32155;54.076;12.092;2023-02-28T16:02:51;9.13;;;2.35;;
46457;SDS011;32155;54.076;12.092;2023-02-28T16:05:19;3.80;;;1.30;;
46457;SDS011;32155;54.076;12.092;2023-02-28T16:07:53;10.07;;;1.65;;
46457;SDS011;32155;54.076;12.092;2023-02-28T16:10:20;10.85;;;2.17;;
46457;SDS011;32155;54.076;12.092;2023-02-28T16:12:50;9.88;;;2.05;;
46457;SDS011;32155;54.076;12.092;2023-02-28T16:15:22;10.73;;;2.13;;
46457;SDS011;32155;54.076;12.092;2023-02-28T16:17:54;7.60;;;2.00;;
46457;SDS011;32155;54.076;12.092;2023-02-28T16:20:21;11.43;;;2.20;;
46457;SDS011;32155;54.076;12.092;2023-02-28T16:22:49;8.13;;;1.77;;
46457;SDS011;32155;54.076;12.092;2023-02-28T16:25:23;5.22;;;1.60;;
46457;SDS011;32155;54.076;12.092;2023-02-28T16:28:15;6.70;;;1.50;;
46457;SDS011;32155;54.076;12.092;2023-02-28T16:30:45;9.13;;;1.70;;
46457;SDS011;32155;54.076;12.092;2023-02-28T16:33:11;8.60;;;1.50;;
46457;SDS011;32155;54.076;12.092;2023-02-28T16:35:42;12.60;;;1.70;;
46457;SDS011;32155;54.076;12.092;2023-02-28T16:38:07;3.97;;;1.08;;
46457;SDS011;32155;54.076;12.092;2023-02-28T16:40:35;6.68;;;1.40;;
46457;SDS011;32155;54.076;12.092;2023-02-28T16:43:04;13.35;;;1.80;;
46457;SDS011;32155;54.076;12.092;2023-02-28T16:45:34;17.55;;;2.22;;
46457;SDS011;32155;54.076;12.092;2023-02-28T16:48:02;20.95;;;2.00;;
46457;SDS011;32155;54.076;12.092;2023-02-28T16:50:33;25.60;;;2.80;;
46457;SDS011;32155;54.076;12.092;2023-02-28T16:52:58;12.57;;;2.00;;
46457;SDS011;32155;54.076;12.092;2023-02-28T16:55:24;34.80;;;3.58;;
46457;SDS011;32155;54.076;12.092;2023-02-28T16:57:54;10.93;;;2.30;;
46457;SDS011;32155;54.076;12.092;2023-02-28T17:00:26;16.77;;;2.67;;
46457;SDS011;32155;54.076;12.092;2023-02-28T17:02:53;12.20;;;2.20;;
46457;SDS011;32155;54.076;12.092;2023-02-28T17:05:20;13.48;;;1.33;;
46457;SDS011;32155;54.076;12.092;2023-02-28T17:07:54;7.05;;;1.48;;
46457;SDS011;32155;54.076;12.092;2023-02-28T17:10:21;14.25;;;1.50;;
46457;SDS011;32155;54.076;12.092;2023-02-28T17:12:48;5.95;;;1.73;;
46457;SDS011;32155;54.076;12.092;2023-02-28T17:15:17;14.50;;;1.95;;
46457;SDS011;32155;54.076;12.092;2023-02-28T17:17:45;9.82;;;1.85;;
46457;SDS011;32155;54.076;12.092;2023-02-28T17:26:11;15.57;;;2.15;;
46457;SDS011;32155;54.076;12.092;2023-02-28T17:28:40;10.20;;;1.70;;
46457;SDS011;32155;54.076;12.092;2023-02-28T17:31:07;12.98;;;1.75;;
46457;SDS011;32155;54.076;12.092;2023-02-28T17:33:40;6.65;;;1.40;;
46457;SDS011;32155;54.076;12.092;2023-02-28T17:36:28;12.57;;;1.60;;
46457;SDS011;32155;54.076;12.092;2023-02-28T17:38:57;7.55;;;1.75;;
46457;SDS011;32155;54.076;12.092;2023-02-28T17:41:39;27.23;;;4.18;;
46457;SDS011;32155;54.076;12.092;2023-02-28T17:44:06;21.52;;;3.40;;
46457;SDS011;32155;54.076;12.092;2023-02-28T17:46:35;25.48;;;7.05;;
46457;SDS011;32155;54.076;12.092;2023-02-28T17:49:03;28.35;;;7.55;;
46457;SDS011;32155;54.076;12.092;2023-02-28T17:51:30;21.83;;;5.10;;
46457;SDS011;32155;54.076;12.092;2023-02-28T17:53:55;44.55;;;6.75;;
46457;SDS011;32155;54.076;12.092;2023-02-28T17:56:22;16.15;;;5.13;;
46457;SDS011;32155;54.076;12.092;2023-02-28T17:58:49;18.88;;;3.67;;
46457;SDS011;32155;54.076;12.092;2023-02-28T18:01:16;12.43;;;2.83;;
46457;SDS011;32155;54.076;12.092;2023-02-28T18:03:42;27.17;;;6.78;;
46457;SDS011;32155;54.076;12.092;2023-02-28T18:06:15;17.77;;;5.10;;
46457;SDS011;32155;54.076;12.092;2023-02-28T18:08:53;8.75;;;3.50;;
46457;SDS011;32155;54.076;12.092;2023-02-28T18:11:23;9.73;;;2.47;;
46457;SDS011;32155;54.076;12.092;2023-02-28T18:13:52;18.48;;;4.07;;
46457;SDS011;32155;54.076;12.092;2023-02-28T18:16:20;7.43;;;2.78;;
46457;SDS011;32155;54.076;12.092;2023-02-28T18:18:47;11.25;;;2.55;;
46457;SDS011;32155;54.076;12.092;2023-02-28T18:21:14;9.50;;;2.03;;
46457;SDS011;32155;54.076;12.092;2023-02-28T18:23:40;8.70;;;2.28;;
46457;SDS011;32155;54.076;12.092;2023-02-28T18:26:13;17.98;;;1.98;;
46457;SDS011;32155;54.076;12.092;2023-02-28T18:28:40;10.93;;;3.25;;
46457;SDS011;32155;54.076;12.092;2023-02-28T18:31:07;17.35;;;5.00;;
46457;SDS011;32155;54.076;12.092;2023-02-28T18:33:33;28.98;;;11.38;;
46457;SDS011;32155;54.076;12.092;2023-02-28T18:35:59;29.30;;;13.48;;
46457;SDS011;32155;54.076;12.092;2023-02-28T18:38:26;39.45;;;13.13;;
46457;SDS011;32155;54.076;12.092;2023-02-28T18:40:56;33.90;;;11.05;;
46457;SDS011;32155;54.076;12.092;2023-02-28T18:43:41;16.85;;;8.63;;
46457;SDS011;32155;54.076;12.092;2023-02-28T19:52:33;17.10;;;5.80;;
46457;SDS011;32155;54.076;12.092;2023-02-28T20:02:01;12.98;;;5.35;;
46457;SDS011;32155;54.076;12.092;2023-02-28T20:04:30;12.95;;;4.80;;
46457;SDS011;32155;54.076;12.092;2023-02-28T20:07:26;10.77;;;4.40;;
46457;SDS011;32155;54.076;12.092;2023-02-28T20:09:54;10.90;;;5.05;;
46457;SDS011;32155;54.076;12.092;2023-02-28T20:12:35;10.20;;;5.15;;
46457;SDS011;32155;54.076;12.092;2023-02-28T20:15:01;10.35;;;4.68;;
